Terminal Aerodrome Forecast
Issued by NWS Pueblo, CO

Home | Current Version | Previous Version | Text Only | Print | Product List | Glossary On
Versions: 1 2 3 4 5 6 7 8 9 10 11 12 13 14 15 16 17 18 19 20 21 22 23 24 25 26 27 28 29 30 31 32 33 34 35 36 37 38 39
000
FTUS45 KPUB 040524
TAFPUB
TAF
KPUB 040524Z 0406/0506 32006KT P6SM SCT200
     FM041500 14006KT P6SM FEW100 SCT200
     FM041800 15011KT P6SM FEW080 SCT200
     FM042000 17011KT P6SM VCTS SCT080CB BKN200
     FM050300 VRB06KT P6SM BKN200=

USA.gov is the U.S. government's official web portal to all federal, state and local government web resources and services.